createdAt,value
2017-12-31T00:01:08.639Z,0.60
2017-12-31T00:03:36.136Z,0.67
2017-12-31T00:06:03.600Z,0.67
2017-12-31T00:08:31.153Z,1.00
2017-12-31T00:10:58.741Z,0.77
2017-12-31T00:13:26.966Z,0.80
2017-12-31T00:15:54.443Z,0.73
2017-12-31T00:18:21.928Z,1.00
2017-12-31T00:20:50.184Z,0.70
2017-12-31T00:23:18.466Z,0.77
2017-12-31T00:25:46.732Z,0.70
2017-12-31T00:28:14.288Z,1.07
2017-12-31T00:30:41.839Z,1.00
2017-12-31T00:33:09.327Z,0.90
2017-12-31T00:35:36.869Z,0.87
2017-12-31T00:38:05.112Z,0.90
2017-12-31T00:40:32.575Z,1.07
2017-12-31T00:43:00.049Z,0.80
2017-12-31T00:45:27.516Z,0.90
2017-12-31T00:47:55.781Z,1.13
2017-12-31T00:50:24.020Z,1.00
2017-12-31T00:52:51.600Z,1.60
2017-12-31T00:55:19.058Z,1.67
2017-12-31T00:57:46.538Z,1.10
2017-12-31T01:00:14.779Z,1.20
2017-12-31T01:02:42.304Z,1.27
2017-12-31T01:05:10.620Z,1.50
2017-12-31T01:07:38.168Z,1.30
2017-12-31T01:10:05.649Z,1.57
2017-12-31T01:12:33.998Z,1.10
2017-12-31T01:15:01.479Z,1.70
2017-12-31T01:17:29.687Z,1.20
2017-12-31T01:19:57.182Z,0.97
2017-12-31T01:22:24.659Z,1.40
2017-12-31T01:24:52.894Z,1.10
2017-12-31T01:27:20.361Z,1.10
2017-12-31T01:29:47.836Z,1.50
2017-12-31T01:32:15.300Z,1.80
2017-12-31T01:34:43.558Z,1.60
2017-12-31T01:37:11.005Z,1.37
2017-12-31T01:39:38.484Z,1.33
2017-12-31T01:42:05.943Z,1.57
2017-12-31T01:44:34.197Z,2.63
2017-12-31T01:47:01.759Z,1.23
2017-12-31T01:49:29.244Z,1.27
2017-12-31T01:51:57.474Z,1.10
2017-12-31T01:54:24.927Z,1.30
2017-12-31T01:56:52.378Z,1.20
2017-12-31T01:59:19.869Z,1.53
2017-12-31T02:01:47.338Z,1.33
2017-12-31T02:04:15.545Z,1.33
2017-12-31T02:06:43.028Z,1.33
2017-12-31T02:09:10.502Z,1.20
2017-12-31T02:11:37.964Z,1.50
2017-12-31T02:14:06.218Z,1.33
2017-12-31T02:16:33.691Z,1.17
2017-12-31T02:19:01.186Z,1.57
2017-12-31T02:21:28.655Z,1.23
2017-12-31T02:23:56.111Z,1.40
2017-12-31T02:26:23.586Z,1.43
2017-12-31T02:28:51.068Z,1.83
2017-12-31T02:31:18.570Z,1.80
2017-12-31T02:33:46.035Z,1.53
2017-12-31T02:36:13.496Z,1.47
2017-12-31T02:38:41.032Z,1.80
2017-12-31T02:41:08.496Z,1.63
2017-12-31T02:43:35.983Z,1.57
2017-12-31T02:46:03.582Z,1.20
2017-12-31T02:48:31.808Z,1.40
2017-12-31T02:50:59.372Z,1.87
2017-12-31T02:53:26.828Z,1.63
2017-12-31T02:55:54.289Z,1.77
2017-12-31T02:58:21.758Z,0.97
2017-12-31T03:00:49.218Z,0.93
2017-12-31T03:03:16.708Z,1.47
2017-12-31T03:05:44.163Z,1.20
2017-12-31T03:08:11.637Z,1.30
2017-12-31T03:10:39.141Z,1.40
2017-12-31T03:13:06.606Z,2.27
2017-12-31T03:15:34.849Z,1.60
2017-12-31T03:18:02.324Z,1.53
2017-12-31T03:20:29.774Z,1.43
2017-12-31T03:22:57.341Z,1.60
2017-12-31T03:25:24.803Z,1.70
2017-12-31T03:27:53.032Z,1.63
2017-12-31T03:30:20.520Z,1.67
2017-12-31T03:32:48.006Z,1.20
2017-12-31T03:35:16.222Z,1.20
2017-12-31T03:37:43.670Z,2.20
2017-12-31T03:40:11.160Z,1.50
2017-12-31T03:42:38.648Z,1.27
2017-12-31T03:45:06.126Z,1.47
2017-12-31T03:47:33.579Z,1.50
2017-12-31T03:50:01.089Z,1.53
2017-12-31T03:52:30.056Z,1.40
2017-12-31T03:54:57.541Z,1.10
2017-12-31T03:57:25.090Z,1.77
2017-12-31T03:59:52.546Z,1.60
2017-12-31T04:02:20.108Z,1.13
2017-12-31T04:04:47.594Z,1.10
2017-12-31T04:07:15.070Z,1.23
2017-12-31T04:09:42.533Z,1.20
2017-12-31T04:12:10.013Z,1.10
2017-12-31T04:14:37.525Z,1.57
2017-12-31T04:17:05.744Z,1.60
2017-12-31T04:19:33.200Z,1.20
2017-12-31T04:22:00.674Z,0.93
2017-12-31T04:24:28.157Z,1.10
2017-12-31T04:26:55.617Z,0.70
2017-12-31T04:29:23.083Z,1.30
2017-12-31T04:31:50.596Z,1.07
2017-12-31T04:34:18.152Z,1.00
2017-12-31T04:36:46.381Z,1.13
2017-12-31T04:39:13.854Z,1.47
2017-12-31T04:41:41.345Z,1.20
2017-12-31T04:44:08.927Z,1.10
2017-12-31T04:46:36.422Z,1.10
2017-12-31T04:49:03.880Z,1.13
2017-12-31T04:51:31.399Z,0.93
2017-12-31T04:53:58.868Z,1.23
2017-12-31T04:56:26.331Z,1.00
2017-12-31T04:58:53.794Z,1.80
2017-12-31T05:01:21.288Z,1.00
2017-12-31T05:03:48.762Z,0.97
2017-12-31T05:06:17.030Z,1.20
2017-12-31T05:08:45.264Z,1.03
2017-12-31T05:11:12.851Z,1.00
2017-12-31T05:13:40.320Z,1.57
2017-12-31T05:16:08.548Z,1.20
2017-12-31T05:18:36.042Z,0.97
2017-12-31T05:21:03.500Z,0.90
2017-12-31T05:23:30.975Z,0.93
2017-12-31T05:25:59.217Z,1.03
2017-12-31T05:28:26.692Z,1.73
2017-12-31T05:30:55.036Z,1.00
2017-12-31T05:33:22.512Z,1.30
2017-12-31T05:35:49.973Z,1.00
2017-12-31T05:38:17.520Z,1.00
2017-12-31T05:40:45.093Z,1.00
2017-12-31T05:43:13.367Z,1.27
2017-12-31T05:45:41.604Z,1.67
2017-12-31T05:48:09.064Z,1.00
2017-12-31T05:50:36.524Z,1.03
2017-12-31T05:53:04.005Z,1.20
2017-12-31T05:55:32.214Z,1.20
2017-12-31T05:57:59.713Z,1.00
2017-12-31T06:00:27.288Z,0.70
2017-12-31T06:02:54.763Z,1.07
2017-12-31T06:05:23.009Z,1.40
2017-12-31T06:07:50.478Z,1.83
2017-12-31T06:10:18.717Z,1.60
2017-12-31T06:12:46.194Z,0.90
2017-12-31T06:15:13.674Z,1.30
2017-12-31T06:17:41.900Z,1.30
2017-12-31T06:20:09.384Z,1.20
2017-12-31T06:22:36.845Z,0.90
2017-12-31T06:25:04.322Z,1.13
2017-12-31T06:27:31.785Z,1.40
2017-12-31T06:29:59.258Z,1.10
2017-12-31T06:32:26.741Z,0.90
2017-12-31T06:34:54.191Z,1.00
2017-12-31T06:37:21.663Z,1.20
2017-12-31T06:39:49.162Z,1.00
2017-12-31T06:42:17.380Z,0.90
2017-12-31T06:44:44.840Z,1.00
2017-12-31T06:47:12.330Z,1.10
2017-12-31T06:49:40.561Z,0.80
2017-12-31T06:52:08.042Z,0.90
2017-12-31T06:54:35.513Z,1.90
2017-12-31T06:57:03.822Z,1.10
2017-12-31T06:59:31.291Z,1.10
2017-12-31T07:01:58.774Z,0.90
2017-12-31T07:04:26.265Z,1.17
2017-12-31T07:06:54.530Z,1.00
2017-12-31T07:09:22.806Z,0.80
2017-12-31T07:11:51.044Z,1.20
2017-12-31T07:14:18.513Z,0.90
2017-12-31T07:16:46.081Z,1.40
2017-12-31T07:19:13.640Z,1.17
2017-12-31T07:21:42.608Z,1.37
2017-12-31T07:24:10.210Z,0.97
2017-12-31T07:26:38.472Z,0.90
2017-12-31T07:29:06.705Z,1.00
2017-12-31T07:31:34.311Z,1.10
2017-12-31T07:34:02.538Z,0.90
2017-12-31T07:36:30.038Z,1.00
2017-12-31T07:38:58.250Z,1.10
2017-12-31T07:41:25.712Z,1.10
2017-12-31T07:43:53.194Z,1.30
2017-12-31T07:46:20.663Z,1.67
2017-12-31T07:48:48.137Z,1.23
2017-12-31T07:51:16.401Z,1.00
2017-12-31T07:53:43.864Z,1.20
2017-12-31T07:56:12.096Z,1.13
2017-12-31T07:58:39.581Z,1.23
2017-12-31T08:01:07.146Z,1.50
2017-12-31T08:03:34.613Z,1.17
2017-12-31T08:06:02.846Z,0.80
2017-12-31T08:08:30.317Z,1.17
2017-12-31T08:10:57.790Z,1.10
2017-12-31T08:13:26.052Z,1.27
2017-12-31T08:15:53.520Z,1.67
2017-12-31T08:18:21.730Z,1.50
2017-12-31T08:20:49.250Z,1.37
2017-12-31T08:23:17.475Z,1.27
2017-12-31T08:25:44.918Z,1.00
2017-12-31T08:28:13.085Z,1.03
2017-12-31T08:30:40.549Z,1.10
2017-12-31T08:33:08.046Z,1.17
2017-12-31T08:35:35.580Z,1.30
2017-12-31T08:38:03.040Z,1.20
2017-12-31T08:40:30.517Z,1.00
2017-12-31T08:42:57.984Z,1.43
2017-12-31T08:45:26.258Z,1.10
2017-12-31T08:47:53.733Z,1.10
2017-12-31T08:50:21.266Z,1.00
2017-12-31T08:52:48.834Z,1.10
2017-12-31T08:55:17.050Z,1.30
2017-12-31T08:57:44.514Z,1.40
2017-12-31T09:00:12.005Z,1.00
2017-12-31T09:02:39.483Z,1.17
2017-12-31T09:05:07.714Z,1.20
2017-12-31T09:07:35.175Z,1.00
2017-12-31T09:10:02.686Z,1.10
2017-12-31T09:12:30.189Z,1.30
2017-12-31T09:14:57.660Z,1.37
2017-12-31T09:17:25.114Z,0.97
2017-12-31T09:19:52.614Z,1.00
2017-12-31T09:22:20.101Z,1.30
2017-12-31T09:24:47.555Z,1.30
2017-12-31T09:27:15.086Z,1.03
2017-12-31T09:29:42.561Z,1.30
2017-12-31T09:32:10.024Z,1.33
2017-12-31T09:34:37.483Z,1.10
2017-12-31T09:37:04.960Z,1.20
2017-12-31T09:39:32.442Z,1.13
2017-12-31T09:42:00.680Z,1.30
2017-12-31T09:44:28.298Z,1.20
2017-12-31T09:46:55.734Z,1.37
2017-12-31T09:49:23.256Z,1.30
2017-12-31T09:51:50.756Z,0.90
2017-12-31T09:54:18.202Z,1.10
2017-12-31T09:56:45.677Z,1.00
2017-12-31T09:59:13.188Z,1.30
2017-12-31T10:01:40.744Z,1.43
2017-12-31T10:04:08.210Z,1.20
2017-12-31T10:06:36.489Z,1.17
2017-12-31T10:09:04.741Z,1.17
2017-12-31T10:11:32.217Z,1.10
2017-12-31T10:14:00.444Z,1.10
2017-12-31T10:16:27.905Z,1.10
2017-12-31T10:18:55.401Z,1.30
2017-12-31T10:21:23.648Z,1.17
2017-12-31T10:23:51.128Z,0.90
2017-12-31T10:26:18.584Z,1.40
2017-12-31T10:28:46.836Z,0.97
2017-12-31T10:31:14.278Z,1.30
2017-12-31T10:33:41.851Z,1.07
2017-12-31T10:36:09.412Z,1.10
2017-12-31T10:38:37.641Z,1.37
2017-12-31T10:41:05.122Z,1.00
2017-12-31T10:43:32.622Z,1.17
2017-12-31T10:46:00.859Z,0.93
2017-12-31T10:48:28.329Z,1.20
2017-12-31T10:50:55.901Z,1.27
2017-12-31T10:53:23.457Z,1.07
2017-12-31T10:55:51.021Z,0.80
2017-12-31T10:58:19.243Z,1.20
2017-12-31T11:00:46.719Z,1.23
2017-12-31T11:03:14.190Z,0.90
2017-12-31T11:05:41.657Z,1.10
2017-12-31T11:08:09.211Z,1.53
2017-12-31T11:10:36.677Z,1.27
2017-12-31T11:13:04.890Z,1.23
2017-12-31T11:15:32.406Z,0.97
2017-12-31T11:18:00.653Z,1.13
2017-12-31T11:20:28.130Z,1.20
2017-12-31T11:22:56.360Z,1.30
2017-12-31T11:25:23.820Z,0.80
2017-12-31T11:27:51.286Z,1.10
2017-12-31T11:30:18.758Z,0.83
2017-12-31T11:32:46.223Z,1.03
2017-12-31T11:35:13.706Z,1.17
2017-12-31T11:37:41.154Z,1.37
2017-12-31T11:40:09.416Z,0.90
2017-12-31T11:42:36.970Z,1.10
2017-12-31T11:45:04.438Z,0.70
2017-12-31T11:47:32.690Z,0.70
2017-12-31T11:50:00.148Z,0.83
2017-12-31T11:52:27.653Z,1.00
2017-12-31T11:54:55.115Z,0.63
2017-12-31T11:57:22.578Z,0.80
2017-12-31T11:59:51.816Z,0.80
2017-12-31T12:02:19.288Z,0.97
2017-12-31T12:04:47.536Z,1.17
2017-12-31T12:07:15.052Z,1.20
2017-12-31T12:09:42.561Z,0.90
2017-12-31T12:12:10.796Z,1.13
2017-12-31T12:14:38.283Z,0.77
2017-12-31T12:17:06.519Z,1.07
2017-12-31T12:19:34.013Z,0.53
2017-12-31T12:22:01.473Z,1.00
2017-12-31T12:24:28.933Z,0.90
2017-12-31T12:26:57.250Z,0.90
2017-12-31T12:29:24.723Z,1.30
2017-12-31T12:31:52.203Z,1.13
2017-12-31T12:34:19.676Z,1.40
2017-12-31T12:36:47.161Z,1.00
2017-12-31T12:39:14.631Z,0.90
2017-12-31T12:41:42.078Z,1.00
2017-12-31T12:44:09.561Z,0.80
2017-12-31T12:46:37.041Z,0.90
2017-12-31T12:49:04.619Z,1.20
2017-12-31T12:51:32.088Z,1.27
2017-12-31T12:54:00.349Z,1.00
2017-12-31T12:56:28.622Z,1.00
2017-12-31T12:58:56.888Z,1.17
2017-12-31T13:01:24.598Z,0.90
2017-12-31T13:03:52.056Z,1.17
2017-12-31T13:06:19.516Z,1.63
2017-12-31T13:08:47.020Z,1.30
2017-12-31T13:11:14.515Z,0.90
2017-12-31T13:13:41.983Z,1.00
2017-12-31T13:16:09.451Z,1.23
2017-12-31T13:18:36.924Z,1.00
2017-12-31T13:21:04.386Z,0.90
2017-12-31T13:23:31.852Z,1.30
2017-12-31T13:25:59.407Z,0.87
2017-12-31T13:28:26.861Z,1.10
2017-12-31T13:30:54.324Z,0.80
2017-12-31T13:33:21.821Z,1.00
2017-12-31T13:35:49.331Z,0.60
2017-12-31T13:38:16.790Z,0.97
2017-12-31T13:40:44.291Z,0.70
2017-12-31T13:43:11.735Z,1.30
2017-12-31T13:45:39.259Z,1.30
2017-12-31T13:48:06.736Z,0.90
2017-12-31T13:50:34.982Z,1.00
2017-12-31T13:53:02.448Z,1.00
2017-12-31T13:55:29.908Z,0.90
2017-12-31T13:57:58.240Z,0.90
2017-12-31T14:00:25.708Z,1.00
2017-12-31T14:02:53.158Z,1.20
2017-12-31T14:05:20.758Z,0.90
2017-12-31T14:07:48.989Z,1.00
2017-12-31T14:10:16.451Z,1.00
2017-12-31T14:12:44.045Z,1.10
2017-12-31T14:15:12.304Z,2.10
2017-12-31T14:17:39.759Z,1.00
2017-12-31T14:20:08.743Z,1.00
2017-12-31T14:22:36.212Z,0.97
2017-12-31T14:25:03.726Z,0.90
2017-12-31T14:27:31.200Z,1.10
2017-12-31T14:29:58.661Z,1.57
2017-12-31T14:32:26.146Z,1.23
2017-12-31T14:34:54.400Z,1.10
2017-12-31T14:37:22.648Z,1.03
2017-12-31T14:39:50.185Z,1.27
2017-12-31T14:42:17.646Z,1.10
2017-12-31T14:44:45.135Z,1.90
2017-12-31T14:47:12.587Z,1.20
2017-12-31T14:49:40.051Z,1.20
2017-12-31T14:52:07.514Z,1.27
2017-12-31T14:54:35.081Z,1.70
2017-12-31T14:57:02.581Z,1.73
2017-12-31T14:59:30.053Z,1.47
2017-12-31T15:01:57.543Z,1.00
2017-12-31T15:04:25.005Z,1.10
2017-12-31T15:06:52.478Z,2.00
2017-12-31T15:09:20.742Z,2.03
2017-12-31T15:11:48.954Z,1.70
2017-12-31T15:14:16.407Z,1.60
2017-12-31T15:16:43.902Z,3.03
2017-12-31T15:19:11.508Z,4.87
2017-12-31T15:21:38.979Z,3.37
2017-12-31T15:24:06.435Z,2.93
2017-12-31T15:26:33.918Z,4.07
2017-12-31T15:29:01.410Z,6.50
2017-12-31T15:31:29.656Z,5.93
2017-12-31T15:33:57.242Z,5.23
2017-12-31T15:36:25.498Z,5.17
2017-12-31T15:38:52.961Z,3.70
2017-12-31T15:41:20.516Z,4.50
2017-12-31T15:43:47.994Z,3.70
2017-12-31T15:46:16.210Z,2.83
2017-12-31T15:48:43.818Z,3.03
2017-12-31T15:51:12.054Z,3.20
2017-12-31T15:53:39.525Z,3.20
2017-12-31T15:56:07.019Z,3.70
2017-12-31T15:58:34.602Z,3.50
2017-12-31T16:01:02.154Z,3.00
2017-12-31T16:03:29.631Z,4.53
2017-12-31T16:05:57.126Z,2.87
2017-12-31T16:08:24.606Z,3.00
2017-12-31T16:10:52.074Z,3.93
2017-12-31T16:13:19.533Z,2.40
2017-12-31T16:15:47.000Z,2.67
2017-12-31T16:18:14.864Z,2.00
2017-12-31T16:20:42.319Z,2.50
2017-12-31T16:23:09.824Z,3.07
2017-12-31T16:25:37.279Z,3.67
2017-12-31T16:28:05.520Z,2.80
2017-12-31T16:30:32.992Z,2.33
2017-12-31T16:33:00.466Z,2.43
2017-12-31T16:35:28.040Z,1.93
2017-12-31T16:37:56.300Z,2.37
2017-12-31T16:40:24.618Z,2.70
2017-12-31T16:42:52.815Z,3.37
2017-12-31T16:45:20.298Z,3.87
2017-12-31T16:47:47.754Z,2.83
2017-12-31T16:50:15.228Z,3.00
2017-12-31T16:52:43.468Z,3.93
2017-12-31T16:55:11.040Z,10.10
2017-12-31T16:57:38.515Z,5.17
2017-12-31T17:00:06.748Z,4.50
2017-12-31T17:02:34.219Z,3.90
2017-12-31T17:05:01.673Z,4.77
2017-12-31T17:07:29.191Z,6.17
2017-12-31T17:09:56.665Z,4.80
2017-12-31T17:12:24.140Z,4.40
2017-12-31T17:14:51.681Z,5.00
2017-12-31T17:17:19.155Z,5.17
2017-12-31T17:19:47.406Z,3.80
2017-12-31T17:22:14.863Z,4.50
2017-12-31T17:24:42.352Z,6.00
2017-12-31T17:27:09.839Z,8.93
2017-12-31T17:29:37.465Z,19.53
2017-12-31T17:32:04.936Z,7.47
2017-12-31T17:34:33.622Z,5.63
2017-12-31T17:37:02.976Z,5.20
2017-12-31T17:39:30.475Z,12.10
2017-12-31T17:41:58.700Z,46.03
2017-12-31T17:44:26.191Z,14.80
2017-12-31T17:46:53.669Z,8.63
2017-12-31T17:49:21.896Z,10.70
2017-12-31T17:51:49.485Z,9.00
2017-12-31T17:54:17.034Z,8.93
2017-12-31T17:56:44.492Z,8.90
2017-12-31T17:59:11.989Z,17.90
2017-12-31T18:01:39.510Z,43.53
2017-12-31T18:04:07.730Z,34.67
2017-12-31T18:06:35.411Z,25.53
2017-12-31T18:09:02.892Z,7.20
2017-12-31T18:11:30.348Z,7.10
2017-12-31T18:13:57.845Z,7.17
2017-12-31T18:16:25.286Z,7.40
2017-12-31T18:18:52.836Z,10.30
2017-12-31T18:21:21.093Z,8.97
2017-12-31T18:23:49.318Z,10.43
2017-12-31T18:26:16.812Z,9.20
2017-12-31T18:28:44.290Z,8.47
2017-12-31T18:31:12.549Z,19.97
2017-12-31T18:33:40.010Z,34.97
2017-12-31T18:36:07.466Z,10.40
2017-12-31T18:38:34.942Z,7.80
2017-12-31T18:41:03.198Z,7.90
2017-12-31T18:43:30.647Z,8.10
2017-12-31T18:45:58.204Z,8.67
2017-12-31T18:48:25.679Z,8.47
2017-12-31T18:50:53.943Z,10.60
2017-12-31T18:53:21.394Z,7.17
2017-12-31T18:55:49.657Z,7.53
2017-12-31T18:58:17.957Z,6.70
2017-12-31T19:00:46.224Z,6.97
2017-12-31T19:03:14.460Z,6.93
2017-12-31T19:05:41.952Z,6.70
2017-12-31T19:08:10.202Z,6.33
2017-12-31T19:10:37.674Z,6.37
2017-12-31T19:13:05.249Z,6.23
2017-12-31T19:15:33.480Z,5.40
2017-12-31T19:18:01.074Z,7.70
2017-12-31T19:20:29.300Z,7.00
2017-12-31T19:22:56.773Z,8.43
2017-12-31T19:25:24.250Z,8.90
2017-12-31T19:27:51.716Z,8.40
2017-12-31T19:30:19.955Z,7.60
2017-12-31T19:32:48.851Z,10.70
2017-12-31T19:35:16.307Z,12.80
2017-12-31T19:37:43.774Z,11.40
2017-12-31T19:40:12.021Z,13.20
2017-12-31T19:42:39.511Z,12.70
2017-12-31T19:45:07.068Z,13.57
2017-12-31T19:47:34.545Z,10.57
2017-12-31T19:50:02.907Z,12.50
2017-12-31T19:52:31.132Z,12.10
2017-12-31T19:54:58.613Z,14.37
2017-12-31T19:57:26.071Z,12.80
2017-12-31T19:59:53.533Z,10.30
2017-12-31T20:02:21.056Z,10.90
2017-12-31T20:04:48.519Z,14.97
2017-12-31T20:07:16.008Z,15.90
2017-12-31T20:09:43.495Z,13.07
2017-12-31T20:12:11.010Z,12.80
2017-12-31T20:14:38.487Z,12.47
2017-12-31T20:17:06.798Z,12.80
2017-12-31T20:19:34.242Z,11.70
2017-12-31T20:22:01.727Z,11.97
2017-12-31T20:24:29.220Z,12.50
2017-12-31T20:26:56.691Z,12.73
2017-12-31T20:29:24.932Z,18.90
2017-12-31T20:31:52.391Z,35.33
2017-12-31T20:34:19.868Z,43.13
2017-12-31T20:36:47.334Z,36.83
2017-12-31T20:39:15.573Z,53.60
2017-12-31T20:41:43.032Z,38.30
2017-12-31T20:44:10.512Z,34.63
2017-12-31T20:46:38.774Z,35.40
2017-12-31T20:49:06.280Z,37.73
2017-12-31T20:51:33.744Z,48.30
2017-12-31T20:54:01.216Z,67.47
2017-12-31T20:56:28.737Z,124.83
2017-12-31T20:58:56.208Z,130.80
2017-12-31T21:01:23.668Z,75.33
2017-12-31T21:03:51.176Z,48.50
2017-12-31T21:06:19.444Z,45.37
2017-12-31T21:08:46.930Z,41.50
2017-12-31T21:11:14.437Z,66.37
2017-12-31T21:13:41.894Z,55.20
2017-12-31T21:16:09.371Z,96.10
2017-12-31T21:18:36.945Z,84.43
2017-12-31T21:21:05.184Z,61.87
2017-12-31T21:23:32.665Z,46.27
2017-12-31T21:26:00.932Z,98.70
2017-12-31T21:28:28.506Z,91.97
2017-12-31T21:30:56.728Z,82.73
2017-12-31T21:33:24.182Z,99.77
2017-12-31T21:35:51.721Z,120.97
2017-12-31T21:38:19.241Z,101.13
2017-12-31T21:40:46.731Z,66.03
2017-12-31T21:43:14.191Z,64.83
2017-12-31T21:45:41.655Z,59.70
2017-12-31T21:48:09.144Z,52.37
2017-12-31T21:50:36.613Z,53.77
2017-12-31T21:53:04.168Z,174.40
2017-12-31T21:55:31.673Z,37.43
2017-12-31T21:57:59.170Z,37.53
2017-12-31T22:00:26.636Z,28.40
2017-12-31T22:02:54.101Z,27.57
2017-12-31T22:05:22.334Z,22.10
2017-12-31T22:07:49.794Z,46.60
2017-12-31T22:10:17.296Z,37.87
2017-12-31T22:12:45.537Z,32.90
2017-12-31T22:15:13.168Z,71.00
2017-12-31T22:17:40.630Z,56.27
2017-12-31T22:20:08.114Z,62.17
2017-12-31T22:22:35.682Z,156.10
2017-12-31T22:25:03.236Z,55.20
2017-12-31T22:27:30.712Z,37.90
2017-12-31T22:29:58.965Z,45.80
2017-12-31T22:32:26.438Z,30.80
2017-12-31T22:34:54.669Z,25.10
2017-12-31T22:37:22.152Z,23.13
2017-12-31T22:39:49.625Z,31.27
2017-12-31T22:42:17.894Z,39.70
2017-12-31T22:44:45.381Z,34.10
2017-12-31T22:47:12.837Z,26.97
2017-12-31T22:49:40.340Z,32.87
2017-12-31T22:52:07.856Z,32.50
2017-12-31T22:54:36.335Z,49.37
2017-12-31T22:57:03.866Z,37.70
2017-12-31T22:59:32.122Z,49.50
2017-12-31T23:02:00.409Z,259.27
2017-12-31T23:04:28.715Z,76.37
2017-12-31T23:06:56.204Z,110.03
2017-12-31T23:09:23.710Z,185.73
2017-12-31T23:11:51.192Z,162.27
2017-12-31T23:14:18.689Z,187.30
2017-12-31T23:16:46.200Z,174.50
2017-12-31T23:19:13.681Z,218.67
2017-12-31T23:21:41.189Z,203.10
2017-12-31T23:24:08.663Z,139.83
2017-12-31T23:26:36.176Z,110.17
2017-12-31T23:29:03.662Z,119.63
2017-12-31T23:31:31.891Z,102.30
2017-12-31T23:33:59.373Z,113.20
2017-12-31T23:36:27.616Z,110.53
2017-12-31T23:38:55.190Z,61.13
2017-12-31T23:41:22.652Z,67.00
2017-12-31T23:43:50.971Z,42.40
2017-12-31T23:46:18.447Z,43.23
2017-12-31T23:48:46.946Z,51.60
2017-12-31T23:51:14.406Z,53.27
2017-12-31T23:53:41.924Z,55.07
2017-12-31T23:56:09.400Z,59.83
2017-12-31T23:58:36.863Z,60.97
